Peachtree City, GA

2:42 PM EDT on June 03, 2015 (GMT -0400)
Peachtree City-Falcon | | Change Station
CLOSE
Current Station
Airport
Location: Peachtree City,
Elevation: 807 ft
Nearby Weather Stations

Elev 807 ft 33.36 °N, 84.57 °W | Updated 28 minutes ago

Light Rain
Light Rain Mist
71 °F
Feels Like 71 °F
N
6
Wind Variable Wind from SSE

Today
High -- | Low -- °F
--% Chance of Precip.
Yesterday
High -- | Low -- °F
Precip. -- in
6:29 AM 8:43 PM
Full, 99% visible
Pressure 29.97 in
Visibility 5.0 miles
Clouds Scattered Clouds 4100 ft
Mostly Cloudy 6500 ft
Overcast 9000 ft
Dew Point 68 °F
Humidity 90%
Rainfall 0.27 in
Snow Depth Not available.
UV 4 out of 12
Pollen 4.70 out of 12
Air Quality Not available.
Flu Activity Sporadic
SPECI KFFC 031814Z AUTO 16005KT 5SM -RA BR SCT041 BKN065 OVC090 22/20 A2997 RMK AO2 LTG DSNT S AND SW TSE14 P0010 T02170200

More Conditions Fewer Conditions

Pressure 29.97 in
Visibility 5.0 miles
Clouds Scattered Clouds 4100 ft
Mostly Cloudy 6500 ft
Overcast 9000 ft
Dew Point 68 °F
Humidity 90%
Rainfall 0.27 in
Snow Depth Not available.
UV 4 out of 12
Pollen 4.70 out of 12
Air Quality Not available.
Flu Activity Sporadic
SPECI KFFC 031814Z AUTO 16005KT 5SM -RA BR SCT041 BKN065 OVC090 22/20 A2997 RMK AO2 LTG DSNT S AND SW TSE14 P0010 T02170200

More Conditions Fewer Conditions

10-Day Weather Forecast

×

Almanac

Astronomy

Jun. 03, 2015 Rise Set
Actual Time
Civil Twilight
Nautical Twilight
Astronomical Twilight
Moon
Length of Visible Light
Length of Day
Tomorrow will be .
, % of the Moon is Illuminated

Today's Extremes

State Highs State Lows

Community

WunderPhotos

Upload Photos

1,826,270 photos uploaded!

WunderBlogs® & News

Nearby

Air Quality

  Air Quality AQ Index Pollutant
Not available.

Snow Depth

Station Depth Elevation

Earthquake Activity

City Distance Mag. Time & Date
Minimum magnitude displayed is 2.5.

Coastal Water Temperatures

Place Temperature

Stations

Nearby Weather Stations

Station Location Temp. Windchill Dew Point Humidity Wind Precip. Elev Updated Type